createdAt,value
2022-08-17T00:00:15.736Z,164.33
2022-08-17T00:03:02.815Z,164.57
2022-08-17T00:05:33.170Z,165.23
2022-08-17T00:08:02.434Z,165.10
2022-08-17T00:10:31.176Z,164.70
2022-08-17T00:13:00.785Z,164.80
2022-08-17T00:15:28.726Z,164.57
2022-08-17T00:17:56.588Z,164.83
2022-08-17T00:20:30.665Z,165.13
2022-08-17T00:23:10.364Z,164.87
2022-08-17T00:25:38.599Z,165.00
2022-08-17T00:28:08.011Z,164.80
2022-08-17T00:30:51.223Z,164.07
2022-08-17T00:33:24.156Z,164.73
2022-08-17T00:35:52.540Z,164.80
2022-08-17T00:38:22.081Z,163.53
2022-08-17T00:40:52.143Z,163.77
2022-08-17T00:43:31.939Z,165.03
2022-08-17T00:46:01.534Z,164.80
2022-08-17T00:48:30.897Z,163.80
2022-08-17T00:51:08.073Z,163.97
2022-08-17T00:53:41.772Z,164.53
2022-08-17T00:56:13.787Z,164.37
2022-08-17T00:58:42.254Z,163.57
2022-08-17T01:01:13.007Z,164.60
2022-08-17T01:03:51.499Z,164.90
2022-08-17T01:06:19.963Z,164.60
2022-08-17T01:08:51.895Z,163.97
2022-08-17T01:11:25.750Z,164.67
2022-08-17T01:13:53.662Z,164.97
2022-08-17T01:16:24.323Z,165.63
2022-08-17T01:18:55.174Z,165.73
2022-08-17T01:21:29.777Z,164.83
2022-08-17T01:23:59.149Z,165.27
2022-08-17T01:26:27.440Z,165.03
2022-08-17T01:28:56.014Z,164.53
2022-08-17T01:31:25.974Z,164.70
2022-08-17T01:33:53.973Z,164.60
2022-08-17T01:36:22.013Z,165.13
2022-08-17T01:38:49.895Z,165.30
2022-08-17T01:41:22.744Z,165.33
2022-08-17T01:43:57.769Z,166.03
2022-08-17T01:46:28.279Z,165.10
2022-08-17T01:48:57.673Z,164.87
2022-08-17T01:51:30.165Z,165.10
2022-08-17T01:54:01.109Z,165.03
2022-08-17T01:56:33.290Z,165.40
2022-08-17T01:59:01.355Z,165.23
2022-08-17T02:01:31.074Z,164.97
2022-08-17T02:04:01.298Z,164.70
2022-08-17T02:06:31.620Z,165.53
2022-08-17T02:09:16.643Z,165.57
2022-08-17T02:11:47.229Z,165.87
2022-08-17T02:14:15.421Z,164.73
2022-08-17T02:16:43.911Z,165.57
2022-08-17T02:19:15.501Z,164.70
2022-08-17T02:21:45.160Z,166.07
2022-08-17T02:24:16.683Z,165.83
2022-08-17T02:26:46.811Z,164.70
2022-08-17T02:29:15.727Z,165.37
2022-08-17T02:31:44.339Z,164.90
2022-08-17T02:34:12.726Z,165.37
2022-08-17T02:36:40.556Z,165.10
2022-08-17T02:39:10.954Z,165.73
2022-08-17T02:41:39.513Z,166.40
2022-08-17T02:44:09.012Z,165.77
2022-08-17T02:46:36.939Z,160.13
2022-08-17T02:49:05.005Z,160.03
2022-08-17T02:51:33.295Z,159.87
2022-08-17T02:54:39.309Z,159.60
2022-08-17T02:56:49.023Z,159.57
2022-08-17T02:59:18.251Z,159.70
2022-08-17T03:01:46.163Z,159.53
2022-08-17T03:04:14.132Z,159.13
2022-08-17T03:06:41.938Z,159.27
2022-08-17T03:09:09.941Z,159.60
2022-08-17T03:11:37.800Z,161.17
2022-08-17T03:14:05.656Z,160.00
2022-08-17T03:16:34.857Z,161.30
2022-08-17T03:19:04.273Z,163.67
2022-08-17T03:21:32.156Z,160.63
2022-08-17T03:24:00.038Z,161.17
2022-08-17T03:26:29.760Z,160.13
2022-08-17T03:28:58.480Z,160.97
2022-08-17T03:31:26.453Z,160.07
2022-08-17T03:33:56.201Z,161.03
2022-08-17T03:36:24.010Z,160.20
2022-08-17T03:38:51.825Z,159.87
2022-08-17T03:41:20.017Z,160.13
2022-08-17T03:43:47.877Z,159.73
2022-08-17T03:46:35.233Z,160.00
2022-08-17T03:49:23.970Z,160.23
2022-08-17T03:52:09.947Z,160.23
2022-08-17T03:54:55.470Z,159.37
2022-08-17T03:57:23.437Z,159.23
2022-08-17T03:59:51.539Z,159.33
2022-08-17T04:02:23.164Z,159.43
2022-08-17T04:04:52.756Z,159.27
2022-08-17T04:07:21.735Z,158.90
2022-08-17T04:09:50.075Z,159.57
2022-08-17T04:12:19.744Z,159.20
2022-08-17T04:14:53.209Z,159.90
2022-08-17T04:17:24.506Z,160.57
2022-08-17T04:19:55.135Z,159.93
2022-08-17T04:22:31.882Z,159.27
2022-08-17T04:25:03.314Z,159.30
2022-08-17T04:27:31.201Z,158.80
2022-08-17T04:29:59.426Z,159.30
2022-08-17T04:33:03.939Z,159.20
2022-08-17T04:35:21.037Z,159.30
2022-08-17T04:37:48.985Z,159.90
2022-08-17T04:40:34.653Z,159.13
2022-08-17T04:43:03.816Z,159.47
2022-08-17T04:45:32.682Z,159.37
2022-08-17T04:48:01.319Z,159.40
2022-08-17T04:50:30.541Z,159.50
2022-08-17T04:52:58.694Z,159.43
2022-08-17T04:55:26.766Z,158.67
2022-08-17T04:57:54.781Z,159.23
2022-08-17T05:00:25.640Z,158.50
2022-08-17T05:02:56.119Z,159.83
2022-08-17T05:05:26.152Z,159.83
2022-08-17T05:07:57.052Z,159.63
2022-08-17T05:10:27.425Z,159.60
2022-08-17T05:12:59.635Z,159.27
2022-08-17T05:15:27.871Z,159.03
2022-08-17T05:17:55.717Z,159.33
2022-08-17T05:20:24.559Z,158.77
2022-08-17T05:22:54.016Z,158.70
2022-08-17T05:25:25.917Z,158.97
2022-08-17T05:27:55.118Z,158.97
2022-08-17T05:30:24.777Z,159.13
2022-08-17T05:32:54.797Z,159.97
2022-08-17T05:35:23.915Z,159.10
2022-08-17T05:37:51.777Z,159.00
2022-08-17T05:40:20.767Z,159.07
2022-08-17T05:42:51.201Z,158.57
2022-08-17T05:45:32.136Z,159.37
2022-08-17T05:48:11.250Z,159.53
2022-08-17T05:50:50.059Z,158.00
2022-08-17T05:53:27.896Z,158.57
2022-08-17T05:56:11.506Z,159.00
2022-08-17T05:59:06.055Z,158.30
2022-08-17T06:01:40.618Z,158.27
2022-08-17T06:04:17.388Z,158.83
2022-08-17T06:06:52.659Z,157.63
2022-08-17T06:09:33.988Z,157.73
2022-08-17T06:12:19.031Z,158.37
2022-08-17T06:15:10.621Z,158.87
2022-08-17T06:17:39.146Z,158.43
2022-08-17T06:20:11.446Z,158.07
2022-08-17T06:22:45.448Z,158.63
2022-08-17T06:25:18.525Z,157.63
2022-08-17T06:27:53.554Z,158.83
2022-08-17T06:30:25.801Z,158.50
2022-08-17T06:32:56.111Z,159.00
2022-08-17T06:35:33.526Z,158.00
2022-08-17T06:38:07.909Z,158.37
2022-08-17T06:40:55.197Z,158.47
2022-08-17T06:43:34.303Z,157.90
2022-08-17T06:46:11.367Z,158.67
2022-08-17T06:48:46.741Z,158.40
2022-08-17T06:51:22.062Z,159.00
2022-08-17T06:53:54.241Z,157.93
2022-08-17T06:56:53.024Z,158.10
2022-08-17T06:59:25.377Z,158.37
2022-08-17T07:01:56.360Z,157.23
2022-08-17T07:04:29.991Z,158.03
2022-08-17T07:07:01.283Z,158.50
2022-08-17T07:09:33.451Z,157.83
2022-08-17T07:12:09.897Z,158.80
2022-08-17T07:14:41.344Z,158.67
2022-08-17T07:17:13.193Z,158.97
2022-08-17T07:19:45.357Z,158.90
2022-08-17T07:22:21.700Z,158.03
2022-08-17T07:24:52.036Z,158.30
2022-08-17T07:27:23.206Z,158.43
2022-08-17T07:29:56.529Z,158.50
2022-08-17T07:32:31.438Z,158.83
2022-08-17T07:35:12.290Z,165.03
2022-08-17T07:37:45.643Z,160.40
2022-08-17T07:40:29.694Z,158.93
2022-08-17T07:43:23.711Z,159.73
2022-08-17T07:46:13.606Z,160.53
2022-08-17T07:48:46.857Z,159.77
2022-08-17T07:51:31.141Z,159.23
2022-08-17T07:54:13.894Z,159.37
2022-08-17T07:56:46.564Z,159.93
2022-08-17T07:59:17.997Z,158.77
2022-08-17T08:02:05.431Z,159.67
2022-08-17T08:04:59.048Z,159.33
2022-08-17T08:07:29.403Z,159.43
2022-08-17T08:10:10.580Z,158.50
2022-08-17T08:12:40.491Z,158.90
2022-08-17T08:15:18.622Z,159.37
2022-08-17T08:17:55.348Z,159.13
2022-08-17T08:20:47.700Z,159.70
2022-08-17T08:23:39.172Z,160.13
2022-08-17T08:26:18.888Z,158.70
2022-08-17T08:28:55.826Z,158.77
2022-08-17T08:31:31.427Z,159.67
2022-08-17T08:34:49.700Z,158.73
2022-08-17T08:37:16.479Z,159.03
2022-08-17T08:39:58.067Z,159.53
2022-08-17T08:42:35.642Z,158.87
2022-08-17T08:45:13.564Z,159.07
2022-08-17T08:47:58.131Z,158.87
2022-08-17T08:50:45.927Z,159.37
2022-08-17T08:53:23.454Z,159.07
2022-08-17T08:55:56.287Z,159.00
2022-08-17T08:58:41.000Z,158.93
2022-08-17T09:01:18.290Z,158.40
2022-08-17T09:04:23.258Z,159.07
2022-08-17T09:07:03.284Z,159.03
2022-08-17T09:09:43.258Z,159.07
2022-08-17T09:12:22.133Z,160.00
2022-08-17T09:14:55.362Z,158.63
2022-08-17T09:17:33.485Z,160.47
2022-08-17T09:20:06.775Z,159.97
2022-08-17T09:22:39.338Z,159.87
2022-08-17T09:25:13.284Z,158.73
2022-08-17T09:27:51.537Z,159.97
2022-08-17T09:30:20.554Z,159.50
2022-08-17T09:32:55.240Z,159.07
2022-08-17T09:35:36.683Z,158.23
2022-08-17T09:38:14.493Z,159.67
2022-08-17T09:40:51.428Z,159.63
2022-08-17T09:43:28.546Z,159.87
2022-08-17T09:46:01.804Z,160.10
2022-08-17T09:48:33.669Z,160.37
2022-08-17T09:51:07.036Z,158.87
2022-08-17T09:53:37.955Z,159.20
2022-08-17T09:56:23.894Z,159.57
2022-08-17T09:59:06.662Z,158.63
2022-08-17T10:01:39.695Z,160.07
2022-08-17T10:04:30.528Z,158.60
2022-08-17T10:07:05.517Z,159.03
2022-08-17T10:09:50.833Z,158.90
2022-08-17T10:12:31.198Z,158.73
2022-08-17T10:15:17.408Z,159.47
2022-08-17T10:17:59.355Z,159.33
2022-08-17T10:20:30.986Z,159.60
2022-08-17T10:23:20.187Z,158.77
2022-08-17T10:26:10.024Z,159.27
2022-08-17T10:28:44.472Z,159.63
2022-08-17T10:31:40.059Z,158.40
2022-08-17T10:34:36.195Z,158.10
2022-08-17T10:37:25.033Z,158.63
2022-08-17T10:40:02.374Z,159.30
2022-08-17T10:42:36.152Z,158.93
2022-08-17T10:45:21.444Z,158.03
2022-08-17T10:48:05.721Z,158.33
2022-08-17T10:50:49.370Z,158.13
2022-08-17T10:53:52.456Z,159.03
2022-08-17T10:56:23.162Z,159.03
2022-08-17T10:58:54.384Z,158.53
2022-08-17T11:02:02.174Z,159.00
2022-08-17T11:04:55.360Z,158.90
2022-08-17T11:07:43.721Z,159.07
2022-08-17T11:10:42.033Z,158.37
2022-08-17T11:13:17.560Z,158.70
2022-08-17T11:16:09.968Z,159.20
2022-08-17T11:19:08.471Z,158.70
2022-08-17T11:21:54.247Z,158.77
2022-08-17T11:24:30.471Z,158.80
2022-08-17T11:27:12.147Z,158.67
2022-08-17T11:29:53.526Z,158.27
2022-08-17T11:32:34.225Z,157.77
2022-08-17T11:35:34.627Z,158.30
2022-08-17T11:38:17.935Z,158.40
2022-08-17T11:41:14.755Z,157.87
2022-08-17T11:43:57.183Z,157.77
2022-08-17T11:46:56.286Z,158.60
2022-08-17T11:49:55.000Z,158.10
2022-08-17T11:52:44.540Z,158.50
2022-08-17T11:55:58.621Z,158.90
2022-08-17T11:58:42.678Z,158.43
2022-08-17T12:01:16.062Z,157.53
2022-08-17T12:03:54.209Z,158.60
2022-08-17T12:06:44.989Z,158.47
2022-08-17T12:09:18.237Z,158.93
2022-08-17T12:12:01.708Z,158.90
2022-08-17T12:15:08.985Z,158.57
2022-08-17T12:17:41.134Z,157.70
2022-08-17T12:20:14.877Z,158.17
2022-08-17T12:22:54.758Z,158.83
2022-08-17T12:25:32.973Z,157.53
2022-08-17T12:28:06.086Z,159.13
2022-08-17T12:30:37.321Z,158.00
2022-08-17T12:33:12.520Z,158.27
2022-08-17T12:35:40.503Z,158.00
2022-08-17T12:38:31.819Z,157.77
2022-08-17T12:40:59.690Z,158.57
2022-08-17T12:43:32.689Z,158.50
2022-08-17T12:46:14.982Z,158.30
2022-08-17T12:48:58.837Z,158.43
2022-08-17T12:51:29.315Z,157.43
2022-08-17T12:53:57.562Z,157.60
2022-08-17T12:56:25.559Z,157.50
2022-08-17T12:58:55.438Z,157.43
2022-08-17T13:01:26.981Z,158.13
2022-08-17T13:03:57.091Z,158.03
2022-08-17T13:06:30.011Z,158.63
2022-08-17T13:08:57.894Z,158.03
2022-08-17T13:11:26.245Z,157.40
2022-08-17T13:13:56.059Z,157.87
2022-08-17T13:16:27.333Z,157.67
2022-08-17T13:19:06.722Z,158.10
2022-08-17T13:21:36.361Z,157.63
2022-08-17T13:24:08.183Z,158.57
2022-08-17T13:26:42.878Z,157.87
2022-08-17T13:29:23.897Z,158.43
2022-08-17T13:32:02.758Z,157.53
2022-08-17T13:34:49.617Z,158.30
2022-08-17T13:37:30.059Z,157.93
2022-08-17T13:40:01.197Z,157.90
2022-08-17T13:42:50.374Z,158.00
2022-08-17T13:45:50.707Z,158.10
2022-08-17T13:48:29.173Z,157.77
2022-08-17T13:51:26.446Z,157.77
2022-08-17T13:54:07.559Z,157.90
2022-08-17T13:56:40.341Z,157.40
2022-08-17T13:59:12.244Z,158.40
2022-08-17T14:01:43.269Z,157.17
2022-08-17T14:04:15.671Z,158.13
2022-08-17T14:06:51.498Z,157.80
2022-08-17T14:09:24.702Z,157.07
2022-08-17T14:11:53.923Z,158.43
2022-08-17T14:14:23.041Z,158.27
2022-08-17T14:16:52.075Z,158.73
2022-08-17T14:19:22.078Z,157.60
2022-08-17T14:21:51.209Z,158.20
2022-08-17T14:24:24.230Z,158.00
2022-08-17T14:26:52.991Z,157.77
2022-08-17T14:29:21.227Z,158.03
2022-08-17T14:31:54.249Z,158.47
2022-08-17T14:34:24.628Z,158.13
2022-08-17T14:36:53.245Z,157.13
2022-08-17T14:39:21.473Z,158.63
2022-08-17T14:41:49.695Z,157.07
2022-08-17T14:44:18.139Z,158.30
2022-08-17T14:46:47.964Z,158.03
2022-08-17T14:49:16.039Z,158.50
2022-08-17T14:51:45.241Z,158.27
2022-08-17T14:54:34.228Z,158.57
2022-08-17T14:57:24.603Z,157.77
2022-08-17T14:59:53.219Z,157.63
2022-08-17T15:02:29.656Z,156.93
2022-08-17T15:05:00.335Z,157.97
2022-08-17T15:07:30.929Z,158.53
2022-08-17T15:10:00.396Z,157.73
2022-08-17T15:12:32.666Z,158.10
2022-08-17T15:15:01.447Z,158.43
2022-08-17T15:17:43.725Z,158.27
2022-08-17T15:20:15.279Z,159.17
2022-08-17T15:22:46.007Z,159.07
2022-08-17T15:25:15.303Z,158.33
2022-08-17T15:27:43.904Z,157.67
2022-08-17T15:30:13.003Z,158.80
2022-08-17T15:32:50.586Z,158.57
2022-08-17T15:35:27.548Z,158.67
2022-08-17T15:38:04.516Z,158.27
2022-08-17T15:40:36.695Z,157.97
2022-08-17T15:43:06.598Z,158.27
2022-08-17T15:45:35.190Z,158.13
2022-08-17T15:48:03.239Z,157.97
2022-08-17T15:50:31.136Z,158.27
2022-08-17T15:53:01.932Z,159.03
2022-08-17T15:55:31.339Z,157.90
2022-08-17T15:57:59.437Z,157.77
2022-08-17T16:00:28.441Z,158.77
2022-08-17T16:03:45.400Z,157.17
2022-08-17T16:05:45.231Z,157.97
2022-08-17T16:08:20.767Z,157.90
2022-08-17T16:10:49.751Z,158.53
2022-08-17T16:13:18.684Z,157.07
2022-08-17T16:15:56.609Z,158.33
2022-08-17T16:18:30.698Z,157.87
2022-08-17T16:21:18.830Z,158.00
2022-08-17T16:23:49.077Z,157.97
2022-08-17T16:26:17.972Z,157.40
2022-08-17T16:28:46.342Z,158.27
2022-08-17T16:31:14.301Z,157.10
2022-08-17T16:33:42.416Z,157.47
2022-08-17T16:36:31.043Z,158.40
2022-08-17T16:39:00.686Z,157.47
2022-08-17T16:41:46.652Z,157.80
2022-08-17T16:44:16.165Z,158.93
2022-08-17T16:46:45.714Z,158.17
2022-08-17T16:49:35.315Z,157.93
2022-08-17T16:52:03.837Z,156.70
2022-08-17T16:54:35.042Z,157.90
2022-08-17T16:57:04.838Z,158.93
2022-08-17T16:59:41.062Z,157.53
2022-08-17T17:02:15.740Z,158.07
2022-08-17T17:04:50.962Z,157.90
2022-08-17T17:07:49.755Z,157.73
2022-08-17T17:10:22.950Z,157.67
2022-08-17T17:13:02.807Z,157.33
2022-08-17T17:15:44.494Z,158.87
2022-08-17T17:18:15.298Z,158.70
2022-08-17T17:20:48.851Z,158.37
2022-08-17T17:23:29.041Z,158.07
2022-08-17T17:26:04.468Z,159.40
2022-08-17T17:28:46.154Z,157.63
2022-08-17T17:31:16.358Z,157.67
2022-08-17T17:33:48.198Z,157.40
2022-08-17T17:36:25.089Z,158.60
2022-08-17T17:38:55.062Z,157.67
2022-08-17T17:41:29.086Z,157.30
2022-08-17T17:44:03.036Z,156.90
2022-08-17T17:46:35.124Z,157.70
2022-08-17T17:49:02.984Z,156.93
2022-08-17T17:52:08.652Z,158.03
2022-08-17T17:54:39.826Z,157.43
2022-08-17T17:57:21.233Z,158.03
2022-08-17T18:00:00.099Z,157.40
2022-08-17T18:02:51.223Z,157.47
2022-08-17T18:05:35.315Z,157.57
2022-08-17T18:08:15.760Z,158.23
2022-08-17T18:10:50.906Z,158.20
2022-08-17T18:13:40.400Z,157.50
2022-08-17T18:16:13.660Z,157.50
2022-08-17T18:18:44.606Z,158.03
2022-08-17T18:21:16.720Z,157.80
2022-08-17T18:23:51.728Z,157.83
2022-08-17T18:26:37.683Z,158.03
2022-08-17T18:29:31.139Z,157.87
2022-08-17T18:32:24.327Z,157.10
2022-08-17T18:34:55.284Z,157.27
2022-08-17T18:37:44.814Z,158.17
2022-08-17T18:40:29.051Z,157.63
2022-08-17T18:43:02.861Z,157.50
2022-08-17T18:45:43.767Z,157.83
2022-08-17T18:48:22.027Z,157.93
2022-08-17T18:50:51.488Z,158.60
2022-08-17T18:53:33.568Z,158.27
2022-08-17T18:56:26.225Z,158.03
2022-08-17T18:59:12.744Z,157.70
2022-08-17T19:01:53.406Z,157.77
2022-08-17T19:04:34.835Z,157.83
2022-08-17T19:07:05.978Z,157.13
2022-08-17T19:09:39.259Z,157.50
2022-08-17T19:12:26.903Z,158.10
2022-08-17T19:14:57.562Z,158.17
2022-08-17T19:17:35.298Z,157.43
2022-08-17T19:20:11.314Z,157.47
2022-08-17T19:22:52.739Z,158.10
2022-08-17T19:25:25.633Z,156.87
2022-08-17T19:28:00.603Z,157.83
2022-08-17T19:30:30.970Z,157.57
2022-08-17T19:33:03.034Z,157.97
2022-08-17T19:35:41.989Z,157.20
2022-08-17T19:38:19.411Z,157.30
2022-08-17T19:41:01.865Z,157.47
2022-08-17T19:43:51.188Z,157.87
2022-08-17T19:46:26.098Z,158.53
2022-08-17T19:49:03.267Z,157.03
2022-08-17T19:51:40.925Z,157.27
2022-08-17T19:54:15.972Z,156.77
2022-08-17T19:56:54.397Z,156.87
2022-08-17T19:59:35.908Z,157.50
2022-08-17T20:02:15.435Z,157.07
2022-08-17T20:04:48.215Z,157.30
2022-08-17T20:07:19.642Z,157.33
2022-08-17T20:09:52.783Z,157.57
2022-08-17T20:12:23.747Z,157.33
2022-08-17T20:15:09.219Z,157.70
2022-08-17T20:17:39.710Z,157.87
2022-08-17T20:20:24.026Z,157.87
2022-08-17T20:22:58.305Z,157.07
2022-08-17T20:25:33.524Z,157.33
2022-08-17T20:28:07.323Z,157.53
2022-08-17T20:30:38.461Z,157.40
2022-08-17T20:33:09.162Z,156.80
2022-08-17T20:36:02.888Z,157.30
2022-08-17T20:38:42.344Z,156.93
2022-08-17T20:41:16.236Z,157.57
2022-08-17T20:43:52.190Z,157.03
2022-08-17T20:46:52.460Z,158.03
2022-08-17T20:49:27.022Z,157.80
2022-08-17T20:52:02.500Z,157.80
2022-08-17T20:54:49.707Z,157.23
2022-08-17T20:57:48.490Z,157.50
2022-08-17T21:00:42.974Z,158.07
2022-08-17T21:03:50.813Z,157.67
2022-08-17T21:06:24.505Z,157.63
2022-08-17T21:08:58.536Z,157.67
2022-08-17T21:12:04.957Z,157.73
2022-08-17T21:14:59.607Z,156.77
2022-08-17T21:17:47.311Z,157.73
2022-08-17T21:20:32.248Z,157.73
2022-08-17T21:23:28.887Z,158.30
2022-08-17T21:26:21.193Z,157.37
2022-08-17T21:29:31.286Z,157.90
2022-08-17T21:32:19.302Z,158.37
2022-08-17T21:35:28.147Z,157.77
2022-08-17T21:38:03.519Z,157.73
2022-08-17T21:40:33.579Z,157.73
2022-08-17T21:43:17.739Z,158.03
2022-08-17T21:46:00.569Z,158.40
2022-08-17T21:48:31.233Z,157.33
2022-08-17T21:51:04.549Z,157.53
2022-08-17T21:53:39.003Z,157.83
2022-08-17T21:56:07.831Z,157.93
2022-08-17T21:58:45.398Z,158.03
2022-08-17T22:01:25.396Z,158.43
2022-08-17T22:04:05.593Z,157.90
2022-08-17T22:06:37.954Z,157.77
2022-08-17T22:09:16.396Z,158.40
2022-08-17T22:12:07.086Z,158.13
2022-08-17T22:14:53.118Z,159.13
2022-08-17T22:17:24.155Z,157.77
2022-08-17T22:19:54.540Z,158.10
2022-08-17T22:22:35.354Z,157.80
2022-08-17T22:25:05.843Z,157.27
2022-08-17T22:27:54.270Z,157.63
2022-08-17T22:30:33.693Z,158.07
2022-08-17T22:33:22.341Z,158.47
2022-08-17T22:35:50.530Z,157.70
2022-08-17T22:38:31.359Z,158.30
2022-08-17T22:41:27.524Z,158.50
2022-08-17T22:43:57.387Z,158.03
2022-08-17T22:46:26.686Z,157.70
2022-08-17T22:48:58.641Z,158.23
2022-08-17T22:51:29.188Z,158.10
2022-08-17T22:54:18.622Z,159.03
2022-08-17T22:57:12.410Z,158.67
2022-08-17T22:59:47.501Z,158.80
2022-08-17T23:02:21.995Z,159.00
2022-08-17T23:04:52.593Z,159.37
2022-08-17T23:07:21.667Z,159.60
2022-08-17T23:09:49.748Z,159.60
2022-08-17T23:12:26.172Z,159.73
2022-08-17T23:15:00.528Z,159.93
2022-08-17T23:17:37.080Z,159.13
2022-08-17T23:20:08.158Z,159.23
2022-08-17T23:22:37.826Z,158.93
2022-08-17T23:25:25.676Z,159.20
2022-08-17T23:27:54.376Z,159.37
2022-08-17T23:30:25.476Z,159.17
2022-08-17T23:32:56.408Z,159.13
2022-08-17T23:35:40.461Z,158.40
2022-08-17T23:38:09.961Z,158.47
2022-08-17T23:40:39.538Z,158.20
2022-08-17T23:43:17.525Z,159.40
2022-08-17T23:45:53.717Z,158.63
2022-08-17T23:48:35.592Z,158.60
2022-08-17T23:51:09.020Z,159.03
2022-08-17T23:53:38.032Z,158.87
2022-08-17T23:56:10.079Z,158.93
2022-08-17T23:58:39.931Z,159.13
